Terminal Aerodrome Forecast
Issued by NWS

Home | Current Version | Previous Version | Text Only | Print | Product List | Glossary Off
Versions: 1 2 3 4 5 6 7 8 9 10 11 12 13

062
FTUS43 KMPX 231721
TAFAXN
TAF
KAXN 231721Z 2318/2418 30017G25KT P6SM SCT025 BKN045 BKN090
     FM240100 30009KT P6SM SCT070
     FM241400 29014G22KT P6SM SCT025 BKN040=

USA.gov is the U.S. government's official web portal to all federal, state and local government web resources and services.